Time;durP1;ratioP1;P1;durP2;ratioP2;P2;SDS_P1;SDS_P2;PMS_P1;PMS_P2;Temp;Humidity;BMP_temperature;BMP_pressure;BME280_temperature;BME280_humidity;BME280_pressure;Samples;Min_cycle;Max_cycle;Signal;HPM_P1;HPM_P2
2023/12/22 00:02:53;;;;;;;6.10;1.80;;;;;;;7.56;70.15;95922.49;231405;202;153417;-52
2023/12/22 00:07:56;;;;;;;3.80;1.40;;;;;;;7.64;69.63;95923.66;231876;205;137899;-58
2023/12/22 00:12:59;;;;;;;5.50;2.00;;;;;;;7.62;69.04;95921.61;231542;199;138653;-52
2023/12/22 00:18:03;;;;;;;5.70;1.90;;;;;;;7.64;68.56;95943.81;231684;198;153091;-52
2023/12/22 00:23:06;;;;;;;4.20;1.90;;;;;;;7.54;67.37;95946.48;231529;198;138175;-55
2023/12/22 00:28:09;;;;;;;5.70;2.00;;;;;;;7.48;67.17;95943.39;231924;198;137598;-54
2023/12/22 00:33:13;;;;;;;7.20;2.10;;;;;;;7.42;66.58;95934.33;231163;199;153434;-52
2023/12/22 00:38:16;;;;;;;7.80;2.00;;;;;;;7.32;66.29;95947.48;231812;206;137841;-54
2023/12/22 00:43:19;;;;;;;7.70;2.30;;;;;;;7.25;66.33;95951.15;231797;198;138466;-53
2023/12/22 00:48:23;;;;;;;6.10;1.70;;;;;;;7.20;66.30;95947.63;231791;198;153037;-52
2023/12/22 00:53:26;;;;;;;5.50;1.90;;;;;;;7.13;65.79;95970.29;231263;198;138711;-57
2023/12/22 00:58:30;;;;;;;6.20;2.00;;;;;;;7.04;65.67;95985.05;231953;198;141200;-52
2023/12/22 01:03:33;;;;;;;7.50;1.60;;;;;;;6.99;65.46;95980.73;231527;198;153878;-53
2023/12/22 01:08:38;;;;;;;5.10;1.50;;;;;;;6.95;65.82;95979.49;231706;199;138650;-51
2023/12/22 01:13:41;;;;;;;6.10;1.90;;;;;;;6.90;66.08;95988.80;231516;198;138664;-52
2023/12/22 01:18:44;;;;;;;6.90;1.70;;;;;;;6.80;65.70;96001.89;231322;198;153014;-50
2023/12/22 01:23:48;;;;;;;5.30;1.50;;;;;;;6.73;65.46;96003.33;231359;198;138728;-49
2023/12/22 01:28:51;;;;;;;7.20;1.80;;;;;;;6.63;65.94;96012.85;230739;198;138674;-54
2023/12/22 01:33:55;;;;;;;4.70;1.30;;;;;;;6.61;66.75;96009.17;231553;203;154253;-54
2023/12/22 01:38:58;;;;;;;6.70;1.90;;;;;;;6.57;66.94;96022.58;230713;198;138682;-50
2023/12/22 01:44:01;;;;;;;6.90;2.10;;;;;;;6.54;66.25;96008.38;230941;206;138656;-58
2023/12/22 01:49:06;;;;;;;5.10;1.90;;;;;;;6.56;66.06;96022.27;231639;199;154348;-54
2023/12/22 01:54:10;;;;;;;7.30;2.10;;;;;;;6.57;66.07;96026.83;231742;198;139396;-54
2023/12/22 01:59:13;;;;;;;9.00;2.10;;;;;;;6.56;65.86;96035.15;231548;198;138814;-57
2023/12/22 02:04:17;;;;;;;10.20;1.90;;;;;;;6.50;65.08;96039.95;231878;198;154525;-55
2023/12/22 02:09:20;;;;;;;4.20;1.50;;;;;;;6.45;64.83;96040.92;231833;199;142745;-54
2023/12/22 02:14:24;;;;;;;4.90;1.70;;;;;;;6.42;64.41;96034.58;231370;206;138675;-53
2023/12/22 02:19:38;;;;;;;5.50;1.70;;;;;;;6.40;64.62;96040.90;231412;203;154784;-54
2023/12/22 02:24:42;;;;;;;5.60;1.50;;;;;;;6.42;64.61;96046.53;231636;199;137797;-53
2023/12/22 02:29:51;;;;;;;5.90;1.60;;;;;;;6.49;64.35;96044.48;231107;199;138720;-54
2023/12/22 02:34:57;;;;;;;5.00;1.40;;;;;;;6.50;64.19;96037.48;231710;202;153244;-55
2023/12/22 02:40:02;;;;;;;5.90;1.70;;;;;;;6.50;63.95;96041.04;231389;206;137865;-52
2023/12/22 02:45:06;;;;;;;3.50;1.50;;;;;;;6.45;63.85;96034.63;231650;198;138250;-55
2023/12/22 02:50:11;;;;;;;3.40;1.10;;;;;;;6.44;63.89;96030.55;231803;198;153132;-54
2023/12/22 02:55:14;;;;;;;7.60;1.50;;;;;;;6.43;63.07;96037.30;231664;198;137586;-52
2023/12/22 03:00:17;;;;;;;4.50;1.40;;;;;;;6.44;62.88;96039.69;231853;198;138039;-53
2023/12/22 03:05:21;;;;;;;5.70;1.40;;;;;;;6.42;62.51;96040.41;231672;197;153305;-60
2023/12/22 03:10:24;;;;;;;6.10;1.10;;;;;;;6.38;62.19;96040.14;231830;199;138679;-54
2023/12/22 03:15:27;;;;;;;4.60;1.30;;;;;;;6.38;62.26;96036.45;231491;202;138225;-55
2023/12/22 03:20:30;;;;;;;4.60;1.50;;;;;;;6.31;61.82;96027.11;230715;198;152880;-55
2023/12/22 03:25:34;;;;;;;5.80;1.40;;;;;;;6.25;61.73;96027.17;231738;198;138530;-55
2023/12/22 03:30:37;;;;;;;5.00;1.30;;;;;;;6.25;61.08;96041.39;231337;198;138782;-53
2023/12/22 03:35:41;;;;;;;5.70;1.50;;;;;;;6.21;61.23;96045.45;231698;198;153376;-53
2023/12/22 03:40:44;;;;;;;3.20;1.30;;;;;;;6.16;61.40;96048.40;231875;202;137820;-53
2023/12/22 03:45:47;;;;;;;3.50;1.60;;;;;;;6.14;61.18;96052.08;231860;199;138714;-52
2023/12/22 03:50:50;;;;;;;4.40;1.20;;;;;;;6.12;61.22;96048.07;231706;206;153812;-53
2023/12/22 03:55:53;;;;;;;5.00;1.40;;;;;;;6.08;60.36;96053.38;231445;198;138701;-52
2023/12/22 04:00:56;;;;;;;4.00;1.30;;;;;;;6.02;60.47;96057.64;231838;205;138049;-52
2023/12/22 04:06:03;;;;;;;3.10;1.50;;;;;;;6.03;60.50;96067.86;231417;198;153562;-54
2023/12/22 04:11:07;;;;;;;6.00;1.70;;;;;;;5.98;60.46;96062.91;231552;203;137503;-51
2023/12/22 04:16:10;;;;;;;4.90;1.20;;;;;;;5.99;59.59;96062.84;231811;206;138649;-55
2023/12/22 04:21:13;;;;;;;6.60;1.50;;;;;;;5.96;57.87;96063.13;230971;199;154288;-50
2023/12/22 04:26:16;;;;;;;9.90;1.50;;;;;;;5.93;55.66;96064.74;231613;198;137704;-52
2023/12/22 04:31:20;;;;;;;5.40;1.10;;;;;;;5.93;55.19;96074.81;231699;202;138582;-54
2023/12/22 04:36:23;;;;;;;7.20;1.50;;;;;;;5.91;54.86;96082.36;231609;198;154267;-53
2023/12/22 04:41:26;;;;;;;10.00;1.80;;;;;;;5.81;55.39;96080.30;231785;198;138294;-53
2023/12/22 04:46:30;;;;;;;9.00;2.10;;;;;;;5.75;56.37;96082.73;231871;198;138683;-55
2023/12/22 04:51:33;;;;;;;5.70;1.50;;;;;;;5.82;57.03;96075.04;231751;203;154113;-50
2023/12/22 04:56:36;;;;;;;6.60;1.50;;;;;;;5.90;56.94;96073.45;231687;202;137606;-52
2023/12/22 05:01:40;;;;;;;7.00;1.50;;;;;;;5.97;57.33;96068.23;231722;202;137836;-54
2023/12/22 05:06:45;;;;;;;5.30;1.40;;;;;;;6.02;58.10;96068.03;231824;200;153468;-54
2023/12/22 05:11:48;;;;;;;5.60;1.50;;;;;;;5.98;58.86;96081.23;231715;203;137519;-55
2023/12/22 05:16:55;;;;;;;7.80;1.70;;;;;;;5.91;60.08;96090.78;231670;206;138619;-54
2023/12/22 05:21:59;;;;;;;5.70;1.60;;;;;;;5.73;62.70;96113.73;231593;198;153564;-54
2023/12/22 05:27:03;;;;;;;8.10;1.80;;;;;;;5.50;64.92;96143.56;231118;198;137795;-52
2023/12/22 05:32:07;;;;;;;1.00;0.40;;;;;;;5.17;67.98;96180.11;231575;198;139061;-53
2023/12/22 05:37:10;;;;;;;2.20;0.70;;;;;;;4.53;69.40;96185.79;231612;205;153149;-53
2023/12/22 05:42:13;;;;;;;1.20;0.30;;;;;;;4.10;69.85;96182.19;231726;199;137279;-53
2023/12/22 05:47:17;;;;;;;0.90;0.40;;;;;;;3.93;70.58;96193.18;231586;206;139160;-53
2023/12/22 05:52:21;;;;;;;1.50;0.50;;;;;;;3.77;71.04;96206.36;231547;198;153277;-53
2023/12/22 05:57:26;;;;;;;21.40;17.10;;;;;;;3.65;73.35;96207.34;231781;199;138844;-54
2023/12/22 06:02:29;;;;;;;0.80;0.50;;;;;;;3.73;72.37;96219.15;231511;206;138894;-53
2023/12/22 06:07:33;;;;;;;4.10;1.00;;;;;;;3.73;71.73;96205.52;231668;198;153139;-57
2023/12/22 06:12:37;;;;;;;6.50;1.20;;;;;;;3.61;71.10;96204.55;231728;198;137174;-53
2023/12/22 06:17:40;;;;;;;4.00;1.50;;;;;;;3.61;70.72;96217.89;231624;202;138621;-61
2023/12/22 06:22:43;;;;;;;3.90;1.30;;;;;;;3.60;70.68;96226.37;231984;199;153724;-55
2023/12/22 06:27:46;;;;;;;9.20;1.60;;;;;;;3.65;70.24;96237.39;231121;199;138678;-52
2023/12/22 06:32:50;;;;;;;5.80;1.30;;;;;;;3.68;69.95;96239.52;231766;198;137951;-53
2023/12/22 06:37:54;;;;;;;6.90;1.40;;;;;;;3.76;69.39;96239.25;231427;206;155034;-53
2023/12/22 06:42:57;;;;;;;183.90;135.30;;;;;;;3.95;69.29;96251.05;231021;200;139900;-53
2023/12/22 06:48:00;;;;;;;4.50;2.20;;;;;;;4.24;68.47;96262.27;231549;205;138446;-54
2023/12/22 06:53:04;;;;;;;4.50;1.60;;;;;;;4.27;67.74;96275.67;231515;203;155287;-54
2023/12/22 06:58:21;;;;;;;9.50;1.50;;;;;;;4.28;67.19;96282.13;231880;199;143275;-52
2023/12/22 07:03:24;;;;;;;6.10;1.60;;;;;;;4.27;66.85;96290.77;231824;198;138407;-55
2023/12/22 07:08:28;;;;;;;5.90;1.50;;;;;;;4.28;67.05;96291.08;231621;205;153216;-55
2023/12/22 07:13:31;;;;;;;4.60;1.20;;;;;;;4.24;66.66;96282.00;231678;203;137500;-55
2023/12/22 07:18:37;;;;;;;6.40;1.70;;;;;;;4.23;66.31;96288.33;231443;198;138655;-56
2023/12/22 07:23:44;;;;;;;7.60;2.20;;;;;;;4.21;65.54;96287.77;231691;198;153257;-55
2023/12/22 07:28:48;;;;;;;7.00;2.00;;;;;;;4.21;65.79;96298.58;231870;198;137334;-56
2023/12/22 07:33:55;;;;;;;7.40;2.10;;;;;;;4.25;65.42;96309.73;231862;198;139377;-64
2023/12/22 07:38:59;;;;;;;5.90;2.00;;;;;;;4.25;65.57;96310.58;231135;202;153044;-56
2023/12/22 07:44:02;;;;;;;4.60;1.40;;;;;;;4.24;65.64;96315.94;231673;199;137806;-53
2023/12/22 07:49:06;;;;;;;9.80;5.00;;;;;;;4.33;65.85;96323.29;231749;198;137799;-56
2023/12/22 07:54:09;;;;;;;7.70;3.00;;;;;;;4.47;65.57;96339.30;231443;206;153217;-56
2023/12/22 07:59:12;;;;;;;6.00;2.60;;;;;;;4.51;65.54;96336.41;231592;198;138656;-55
2023/12/22 08:04:32;;;;;;;8.70;2.40;;;;;;;4.63;65.29;96332.27;231930;199;137271;-57
2023/12/22 08:09:35;;;;;;;12.60;3.00;;;;;;;4.70;65.14;96337.45;231761;205;153925;-56
2023/12/22 08:14:38;;;;;;;6.70;2.70;;;;;;;4.73;65.30;96324.55;231758;198;138141;-53
2023/12/22 08:19:44;;;;;;;11.20;2.30;;;;;;;4.75;65.28;96315.82;231705;198;138481;-52
2023/12/22 08:24:50;;;;;;;24.80;11.70;;;;;;;4.80;66.05;96311.04;231644;202;153274;-53
2023/12/22 08:29:53;;;;;;;12.00;4.00;;;;;;;4.94;65.82;96311.55;231774;198;137562;-53
2023/12/22 08:34:57;;;;;;;10.00;2.90;;;;;;;4.90;65.65;96316.15;231679;199;137878;-54
2023/12/22 08:40:01;;;;;;;10.20;2.80;;;;;;;4.88;65.83;96312.80;231847;198;154306;-54
2023/12/22 08:45:05;;;;;;;8.40;2.90;;;;;;;4.89;65.81;96310.58;231703;205;137999;-53
2023/12/22 08:50:09;;;;;;;10.60;2.90;;;;;;;4.91;65.93;96317.83;231775;198;138087;-54
2023/12/22 08:55:13;;;;;;;10.30;3.00;;;;;;;4.98;66.08;96314.77;231729;198;153409;-52
2023/12/22 09:00:16;;;;;;;9.00;3.10;;;;;;;5.13;65.85;96307.77;231224;198;138654;-53
2023/12/22 09:05:21;;;;;;;8.40;2.80;;;;;;;5.30;65.57;96304.52;231750;199;138568;-54
2023/12/22 09:10:25;;;;;;;9.00;2.70;;;;;;;5.42;65.32;96303.16;231786;205;153833;-53
2023/12/22 09:15:28;;;;;;;6.50;2.70;;;;;;;5.45;64.96;96312.98;231699;198;137683;-55
2023/12/22 09:20:32;;;;;;;5.70;2.50;;;;;;;5.25;64.82;96308.98;231529;198;138792;-54
2023/12/22 09:25:35;;;;;;;7.70;2.60;;;;;;;5.17;65.45;96327.92;231493;198;154327;-53
2023/12/22 09:30:38;;;;;;;7.90;2.10;;;;;;;5.04;67.00;96334.87;231668;198;138238;-53
2023/12/22 09:35:41;;;;;;;4.50;1.70;;;;;;;4.85;67.94;96322.20;231628;198;138695;-54
2023/12/22 09:40:45;;;;;;;5.10;2.00;;;;;;;4.71;68.75;96325.82;231874;198;153472;-55
2023/12/22 09:45:49;;;;;;;4.20;2.00;;;;;;;4.67;69.41;96324.93;231699;203;138423;-53
2023/12/22 09:50:54;;;;;;;7.90;2.20;;;;;;;4.70;69.37;96309.85;231472;198;137929;-52
2023/12/22 09:55:59;;;;;;;9.50;2.10;;;;;;;4.73;69.48;96297.50;231646;198;154406;-52
2023/12/22 10:01:05;;;;;;;4.50;1.90;;;;;;;4.72;69.53;96286.73;231634;202;137175;-53
2023/12/22 10:06:08;;;;;;;5.60;2.20;;;;;;;4.78;69.92;96274.64;231436;198;138309;-53
2023/12/22 10:11:13;;;;;;;7.10;1.90;;;;;;;4.80;69.61;96278.92;231589;206;154165;-52
2023/12/22 10:16:17;;;;;;;5.60;2.10;;;;;;;4.73;69.29;96286.13;231517;198;138672;-52
2023/12/22 10:21:20;;;;;;;5.50;2.20;;;;;;;4.73;69.48;96292.60;231390;198;138222;-51
2023/12/22 10:26:23;;;;;;;194.60;123.10;;;;;;;4.76;70.05;96284.52;231589;198;154252;-53
2023/12/22 10:31:27;;;;;;;13.30;6.00;;;;;;;4.90;70.20;96282.07;231143;198;138999;-52
2023/12/22 10:36:30;;;;;;;6.60;2.60;;;;;;;4.87;69.46;96283.60;231683;202;138622;-52
2023/12/22 10:41:33;;;;;;;7.00;2.80;;;;;;;4.80;69.09;96282.54;231716;198;154531;-53
2023/12/22 10:46:36;;;;;;;8.30;2.10;;;;;;;4.80;69.29;96292.76;231763;199;138634;-53
2023/12/22 10:51:40;;;;;;;8.00;2.30;;;;;;;4.91;69.55;96281.79;231327;198;138679;-51
2023/12/22 10:56:44;;;;;;;5.10;1.80;;;;;;;5.04;68.28;96278.63;231516;205;153664;-51
2023/12/22 11:01:48;;;;;;;5.80;2.20;;;;;;;5.10;66.70;96271.24;231690;198;142120;-51
2023/12/22 11:06:57;;;;;;;5.70;2.40;;;;;;;5.13;66.80;96258.33;231296;203;139391;-54
2023/12/22 11:12:02;;;;;;;34.70;23.00;;;;;;;5.22;66.27;96256.19;231112;199;153415;-54
2023/12/22 11:17:06;;;;;;;10.00;3.60;;;;;;;5.32;66.43;96247.63;231746;198;139948;-53
2023/12/22 11:22:09;;;;;;;8.90;3.10;;;;;;;5.32;65.26;96252.35;231613;197;140267;-49
2023/12/22 11:27:16;;;;;;;6.80;2.20;;;;;;;5.21;65.03;96234.45;231540;197;154294;-52
2023/12/22 11:32:19;;;;;;;6.20;2.20;;;;;;;5.01;65.86;96263.44;231365;205;138768;-53
2023/12/22 11:37:22;;;;;;;6.90;1.90;;;;;;;4.75;67.74;96275.64;231410;198;138771;-53
2023/12/22 11:42:31;;;;;;;4.80;2.00;;;;;;;4.59;68.94;96285.34;231510;198;154191;-52
2023/12/22 11:47:34;;;;;;;7.50;2.40;;;;;;;4.44;69.66;96279.05;231683;198;138478;-53
2023/12/22 11:52:39;;;;;;;5.00;2.50;;;;;;;4.44;70.39;96278.86;231854;205;138717;-52
2023/12/22 11:57:43;;;;;;;5.60;2.30;;;;;;;4.42;70.82;96271.28;231750;205;154537;-52
2023/12/22 12:02:54;;;;;;;5.60;2.20;;;;;;;4.44;71.31;96253.77;231091;205;138362;-53
2023/12/22 12:08:08;;;;;;;7.10;2.40;;;;;;;4.44;71.57;96244.27;231092;198;138763;-56
2023/12/22 12:13:15;;;;;;;5.30;1.90;;;;;;;4.43;71.48;96262.97;231976;198;153649;-52
2023/12/22 12:18:23;;;;;;;5.50;2.20;;;;;;;4.42;71.71;96270.23;231847;198;138666;-53
2023/12/22 12:23:27;;;;;;;10.60;5.80;;;;;;;4.53;72.00;96257.26;231658;205;138611;-54
2023/12/22 12:28:34;;;;;;;6.10;2.30;;;;;;;4.63;71.86;96252.51;231755;198;153003;-54
2023/12/22 12:33:37;;;;;;;6.20;2.40;;;;;;;4.67;71.07;96255.02;231455;199;140324;-53
2023/12/22 12:38:58;;;;;;;4.90;1.70;;;;;;;4.55;70.60;96254.27;231420;202;138734;-55
2023/12/22 12:44:06;;;;;;;9.00;4.80;;;;;;;4.53;70.30;96250.41;231493;198;155057;-55
2023/12/22 12:49:11;;;;;;;5.70;2.50;;;;;;;4.65;69.89;96258.04;231829;198;141503;-57
2023/12/22 12:54:15;;;;;;;3.40;2.00;;;;;;;4.69;69.46;96242.16;231815;198;138499;-58
2023/12/22 12:59:19;;;;;;;5.00;2.20;;;;;;;4.72;69.07;96235.96;231738;198;153188;-57
2023/12/22 13:04:23;;;;;;;7.50;2.50;;;;;;;4.84;68.67;96225.64;231694;198;139112;-56
2023/12/22 13:09:32;;;;;;;4.20;2.20;;;;;;;4.96;68.34;96208.31;231494;198;139347;-56
2023/12/22 13:14:36;;;;;;;3.40;1.90;;;;;;;4.95;67.91;96204.86;231584;198;153347;-58
2023/12/22 13:19:39;;;;;;;6.10;2.20;;;;;;;4.90;67.18;96204.41;231642;205;138608;-57
2023/12/22 13:24:54;;;;;;;10.90;4.80;;;;;;;4.86;68.27;96195.08;231808;205;138861;-57
2023/12/22 13:29:57;;;;;;;7.10;2.40;;;;;;;4.95;66.13;96181.99;231755;205;153679;-57
2023/12/22 13:35:02;;;;;;;5.90;2.20;;;;;;;4.92;64.41;96191.23;231720;197;138564;-57
2023/12/22 13:40:08;;;;;;;7.00;2.10;;;;;;;4.81;64.11;96207.16;231779;198;138648;-58
2023/12/22 13:45:12;;;;;;;5.20;1.90;;;;;;;4.70;64.74;96233.90;231774;198;153472;-58
2023/12/22 13:50:18;;;;;;;7.60;1.90;;;;;;;4.55;66.22;96223.55;231103;202;138810;-55
2023/12/22 13:55:23;;;;;;;4.30;1.60;;;;;;;4.50;67.42;96223.58;230939;202;138660;-57
2023/12/22 14:00:29;;;;;;;5.30;2.20;;;;;;;4.50;67.35;96238.69;231686;205;153283;-48
2023/12/22 14:05:34;;;;;;;4.30;2.40;;;;;;;4.48;67.62;96233.93;231368;201;138893;-55
2023/12/22 14:10:44;;;;;;;;;;;;;;;4.44;65.95;96236.59;231931;198;137748;-57
2023/12/22 14:15:47;;;;;;;3.70;1.50;;;;;;;4.32;64.83;96241.20;231917;197;153706;-57
2023/12/22 14:20:51;;;;;;;5.30;1.90;;;;;;;4.34;63.57;96243.52;231339;198;138986;-55
2023/12/22 14:25:54;;;;;;;5.60;1.50;;;;;;;4.34;62.25;96245.84;231351;198;138772;-58
2023/12/22 14:30:57;;;;;;;4.90;1.90;;;;;;;4.29;61.01;96245.20;231556;202;153271;-55
2023/12/22 14:36:01;;;;;;;5.90;2.10;;;;;;;4.33;60.95;96248.39;231758;198;138305;-55
2023/12/22 14:41:04;;;;;;;140.40;90.70;;;;;;;4.42;60.78;96254.29;231097;198;138224;-55
2023/12/22 14:46:08;;;;;;;10.80;4.90;;;;;;;4.50;60.11;96251.29;231338;202;154222;-56
2023/12/22 14:51:11;;;;;;;4.90;1.80;;;;;;;4.50;59.62;96256.23;231463;201;139540;-53
2023/12/22 14:56:15;;;;;;;4.00;1.90;;;;;;;4.49;58.90;96260.88;231843;198;137397;-53
2023/12/22 15:01:19;;;;;;;5.10;1.80;;;;;;;4.47;58.14;96268.71;231501;206;154370;-55
2023/12/22 15:06:22;;;;;;;3.50;1.30;;;;;;;4.49;56.91;96264.89;231816;202;137863;-54
2023/12/22 15:11:25;;;;;;;5.00;1.50;;;;;;;4.47;55.55;96269.15;231811;205;137757;-53
2023/12/22 15:16:29;;;;;;;4.80;1.50;;;;;;;4.51;54.56;96273.39;231723;198;153389;-55
2023/12/22 15:21:33;;;;;;;5.50;1.80;;;;;;;4.52;54.18;96270.48;231784;202;137454;-55
2023/12/22 15:26:36;;;;;;;3.90;1.50;;;;;;;4.53;53.87;96278.81;231829;198;137634;-53
2023/12/22 15:31:39;;;;;;;6.90;1.70;;;;;;;4.50;53.50;96281.51;231705;202;153019;-53
2023/12/22 15:36:43;;;;;;;5.90;1.60;;;;;;;4.55;53.76;96278.00;231288;203;138919;-54
2023/12/22 15:41:46;;;;;;;6.90;1.80;;;;;;;4.56;53.18;96258.55;231453;198;139421;-53
2023/12/22 15:46:50;;;;;;;4.60;1.70;;;;;;;4.59;52.22;96257.44;231903;205;153277;-54
2023/12/22 15:51:55;;;;;;;7.30;2.30;;;;;;;4.56;52.19;96262.10;231810;198;137674;-53
2023/12/22 15:56:59;;;;;;;;;;;;;;;4.63;52.50;96267.31;231352;198;138771;-51
2023/12/22 16:02:03;;;;;;;11.50;2.20;;;;;;;4.68;52.12;96265.98;231432;205;153204;-52
2023/12/22 16:07:06;;;;;;;153.00;87.40;;;;;;;4.77;52.30;96270.83;231453;198;138451;-50
2023/12/22 16:12:10;;;;;;;7.80;3.50;;;;;;;4.94;52.63;96266.62;231672;198;141551;-52
2023/12/22 16:17:15;;;;;;;;;;;;;;;4.96;52.69;96264.30;231768;198;152900;-51
2023/12/22 16:22:18;;;;;;;6.30;2.00;;;;;;;4.93;52.96;96263.58;231812;198;139373;-53
2023/12/22 16:27:22;;;;;;;5.40;2.00;;;;;;;4.95;53.03;96267.79;231676;198;139318;-53
2023/12/22 16:32:25;;;;;;;6.40;2.30;;;;;;;5.01;52.56;96272.59;231392;202;153367;-53
2023/12/22 16:37:29;;;;;;;5.30;2.10;;;;;;;5.01;52.58;96279.23;231378;202;138845;-54
2023/12/22 16:42:32;;;;;;;4.50;2.20;;;;;;;4.96;50.76;96282.66;231370;205;137849;-53
2023/12/22 16:47:35;;;;;;;7.60;2.00;;;;;;;4.91;50.97;96285.17;231097;198;154206;-54
2023/12/22 16:52:39;;;;;;;7.80;2.30;;;;;;;4.86;51.47;96281.38;231694;198;138380;-53
2023/12/22 16:57:43;;;;;;;7.90;2.50;;;;;;;4.83;50.84;96296.19;231689;202;137767;-54
2023/12/22 17:02:47;;;;;;;7.40;2.30;;;;;;;4.80;50.64;96288.41;231559;198;153236;-54
2023/12/22 17:07:51;;;;;;;7.00;2.30;;;;;;;4.76;50.59;96292.89;231706;199;137799;-54
2023/12/22 17:12:55;;;;;;;6.30;2.10;;;;;;;4.79;50.08;96300.42;230971;206;138640;-53
2023/12/22 17:17:59;;;;;;;7.30;2.70;;;;;;;4.72;50.09;96310.77;231457;202;153209;-53
2023/12/22 17:23:03;;;;;;;8.60;2.60;;;;;;;4.70;50.32;96319.52;231638;205;138647;-52
2023/12/22 17:28:06;;;;;;;10.20;2.70;;;;;;;4.71;50.28;96328.30;231617;199;139740;-52
2023/12/22 17:33:10;;;;;;;10.90;2.70;;;;;;;4.76;50.45;96332.21;231419;201;154096;-54
2023/12/22 17:38:13;;;;;;;8.00;2.90;;;;;;;4.75;50.71;96324.74;231634;198;137921;-54
2023/12/22 17:43:16;;;;;;;9.30;3.30;;;;;;;4.79;50.63;96331.70;231709;199;138160;-54
2023/12/22 17:48:20;;;;;;;7.50;3.00;;;;;;;4.81;50.83;96321.68;231700;198;153034;-52
2023/12/22 17:53:25;;;;;;;8.10;3.70;;;;;;;4.81;51.17;96319.19;231652;198;139205;-54
2023/12/22 17:58:28;;;;;;;11.00;3.90;;;;;;;4.82;51.52;96317.73;231863;198;137356;-55
2023/12/22 18:03:32;;;;;;;8.90;3.50;;;;;;;4.73;52.21;96322.65;231859;198;154757;-55
2023/12/22 18:08:36;;;;;;;8.20;2.80;;;;;;;4.67;52.75;96333.85;231545;202;138797;-55
2023/12/22 18:13:39;;;;;;;6.00;2.50;;;;;;;4.63;52.74;96327.52;231711;206;137718;-54
2023/12/22 18:18:42;;;;;;;9.10;2.40;;;;;;;4.55;52.24;96331.86;231631;199;154549;-54
2023/12/22 18:23:48;;;;;;;;;;;;;;;4.53;52.55;96340.29;231448;198;138683;-54
2023/12/22 18:28:51;;;;;;;8.00;2.70;;;;;;;4.48;53.53;96341.34;231406;199;138685;-54
2023/12/22 18:33:56;;;;;;;7.20;2.60;;;;;;;4.36;54.40;96343.80;231647;198;153653;-51
2023/12/22 18:39:00;;;;;;;8.50;2.40;;;;;;;4.29;55.08;96350.63;231765;198;138073;-54
2023/12/22 18:44:03;;;;;;;9.40;2.60;;;;;;;4.34;54.87;96347.98;231581;206;137864;-52
2023/12/22 18:49:10;;;;;;;8.90;2.60;;;;;;;4.28;55.06;96335.60;231680;199;153936;-52
2023/12/22 18:54:14;;;;;;;7.00;2.20;;;;;;;4.34;54.98;96322.14;231358;198;138647;-54
2023/12/22 18:59:17;;;;;;;10.50;2.60;;;;;;;4.41;54.98;96320.86;231659;199;138337;-52
2023/12/22 19:04:21;;;;;;;8.60;2.90;;;;;;;4.45;54.82;96322.51;231510;198;153479;-55
2023/12/22 19:09:28;;;;;;;9.80;3.40;;;;;;;4.46;54.92;96335.75;231660;198;138458;-54
2023/12/22 19:14:31;;;;;;;9.60;3.70;;;;;;;4.44;54.85;96339.08;231635;198;137934;-56
2023/12/22 19:19:34;;;;;;;8.30;3.30;;;;;;;4.40;54.52;96338.18;231721;199;153414;-56
2023/12/22 19:24:38;;;;;;;21.70;13.60;;;;;;;4.35;54.30;96337.19;231694;199;147705;-53
2023/12/22 19:29:41;;;;;;;18.10;10.40;;;;;;;4.52;55.82;96326.68;231617;198;137911;-54
2023/12/22 19:34:45;;;;;;;12.30;4.60;;;;;;;4.93;54.87;96323.44;231738;199;154653;-54
2023/12/22 19:39:52;;;;;;;8.50;2.60;;;;;;;5.12;52.65;96318.21;231705;200;137864;-55
2023/12/22 19:44:55;;;;;;;11.30;2.90;;;;;;;5.17;51.58;96323.39;231364;202;138769;-54
2023/12/22 19:49:58;;;;;;;11.40;3.20;;;;;;;5.24;51.35;96330.68;231699;198;152993;-53
2023/12/22 19:55:03;;;;;;;10.00;2.60;;;;;;;5.28;51.11;96342.14;231555;198;138650;-54
2023/12/22 20:00:07;;;;;;;6.10;2.60;;;;;;;5.22;50.60;96335.14;231695;198;137935;-55
2023/12/22 20:05:19;;;;;;;9.40;2.50;;;;;;;5.16;50.47;96333.44;231729;198;154429;-51
2023/12/22 20:10:23;;;;;;;6.20;2.50;;;;;;;5.21;50.29;96337.63;231813;205;137543;-54
2023/12/22 20:15:26;;;;;;;7.70;2.80;;;;;;;5.31;49.97;96349.48;231743;198;137496;-55
2023/12/22 20:20:29;;;;;;;9.50;2.50;;;;;;;5.34;50.12;96353.62;231690;197;153661;-55
2023/12/22 20:25:33;;;;;;;5.70;2.50;;;;;;;5.42;50.90;96352.58;231334;198;139085;-53
2023/12/22 20:30:37;;;;;;;9.50;2.40;;;;;;;5.38;52.28;96351.01;231735;198;138946;-53
2023/12/22 20:35:41;;;;;;;7.10;3.00;;;;;;;5.31;52.90;96348.55;231703;198;153801;-53
2023/12/22 20:40:44;;;;;;;6.80;2.30;;;;;;;5.25;53.21;96349.27;231810;199;137349;-54
2023/12/22 20:45:49;;;;;;;83.00;57.20;;;;;;;5.37;54.72;96344.06;231830;202;138231;-52
2023/12/22 20:50:52;;;;;;;9.30;4.80;;;;;;;5.56;54.82;96343.64;231747;198;153381;-53
2023/12/22 20:55:55;;;;;;;7.60;2.70;;;;;;;5.50;54.72;96341.49;231569;202;138749;-52
2023/12/22 21:00:58;;;;;;;7.80;2.60;;;;;;;5.20;55.06;96349.83;231750;198;137684;-53
2023/12/22 21:06:08;;;;;;;6.50;2.60;;;;;;;5.00;54.93;96356.31;231707;199;153726;-52
2023/12/22 21:11:12;;;;;;;7.50;2.80;;;;;;;4.83;54.70;96349.45;231683;199;139204;-50
2023/12/22 21:16:15;;;;;;;12.50;3.30;;;;;;;4.73;54.65;96362.20;231916;199;137443;-54
2023/12/22 21:21:19;;;;;;;7.90;2.60;;;;;;;4.64;54.42;96358.70;231748;202;154584;-54
2023/12/22 21:26:23;;;;;;;7.80;2.80;;;;;;;4.47;54.14;96360.39;231710;199;138739;-51
2023/12/22 21:31:27;;;;;;;8.50;2.50;;;;;;;4.37;54.19;96362.48;231732;198;137358;-53
2023/12/22 21:36:31;;;;;;;6.90;2.70;;;;;;;4.32;54.14;96370.77;231777;198;153128;-54
2023/12/22 21:41:34;;;;;;;8.90;2.70;;;;;;;4.29;53.95;96388.03;231665;202;140132;-51
2023/12/22 21:46:43;;;;;;;7.70;2.40;;;;;;;4.20;54.00;96405.23;231794;206;137908;-53
2023/12/22 21:51:46;;;;;;;8.30;2.40;;;;;;;4.16;54.10;96414.98;231169;206;153849;-52
2023/12/22 21:56:50;;;;;;;8.80;2.50;;;;;;;4.19;53.90;96418.84;231718;198;137615;-53
2023/12/22 22:01:54;;;;;;;7.90;2.30;;;;;;;4.19;53.93;96416.19;231370;198;138720;-52
2023/12/22 22:06:57;;;;;;;9.90;3.00;;;;;;;4.16;53.86;96420.23;231766;206;153568;-52
2023/12/22 22:12:00;;;;;;;6.30;2.50;;;;;;;4.12;53.87;96419.89;231750;198;137684;-49
2023/12/22 22:17:04;;;;;;;9.50;2.80;;;;;;;4.02;53.93;96427.13;231802;198;137799;-51
2023/12/22 22:22:07;;;;;;;7.60;2.30;;;;;;;4.02;54.03;96427.67;231869;199;153801;-50
2023/12/22 22:27:10;;;;;;;5.10;2.00;;;;;;;3.97;54.10;96420.36;231580;198;138659;-51
2023/12/22 22:32:13;;;;;;;7.50;2.70;;;;;;;3.96;54.14;96407.63;231478;199;138650;-51
2023/12/22 22:37:17;;;;;;;6.10;2.20;;;;;;;3.96;53.59;96387.09;231769;203;154867;-53
2023/12/22 22:42:20;;;;;;;6.70;2.10;;;;;;;3.98;53.33;96375.70;231710;205;137855;-53
2023/12/22 22:47:23;;;;;;;7.20;2.20;;;;;;;3.98;53.32;96390.27;231451;198;138726;-53
2023/12/22 22:52:27;;;;;;;5.80;2.20;;;;;;;4.00;53.24;96401.02;231958;198;153939;-50
2023/12/22 22:57:31;;;;;;;4.80;1.70;;;;;;;3.98;53.07;96405.86;231731;198;138739;-54
2023/12/22 23:02:34;;;;;;;6.20;1.90;;;;;;;3.97;53.17;96407.58;231399;205;138638;-51
2023/12/22 23:07:37;;;;;;;6.60;2.50;;;;;;;3.95;53.28;96413.10;231762;199;154201;-55
2023/12/22 23:12:41;;;;;;;6.50;1.90;;;;;;;3.97;53.54;96406.14;231811;202;137094;-53
2023/12/22 23:17:44;;;;;;;4.90;2.10;;;;;;;4.01;53.65;96410.19;231799;199;141188;-54
2023/12/22 23:22:48;;;;;;;6.10;2.00;;;;;;;4.07;53.57;96410.48;231783;198;154532;-51
2023/12/22 23:27:51;;;;;;;6.00;2.20;;;;;;;4.05;53.60;96399.52;231572;206;141839;-53
2023/12/22 23:32:54;;;;;;;7.20;1.70;;;;;;;4.04;53.56;96402.79;231303;202;138707;-52
2023/12/22 23:37:57;;;;;;;5.30;1.80;;;;;;;4.01;53.52;96405.09;231527;198;153319;-51
2023/12/22 23:43:01;;;;;;;4.50;1.70;;;;;;;4.02;53.26;96414.01;231755;203;137995;-51
2023/12/22 23:48:04;;;;;;;4.90;1.70;;;;;;;4.03;53.37;96415.11;231789;198;138404;-50
2023/12/22 23:53:08;;;;;;;5.90;1.90;;;;;;;3.97;53.16;96418.44;231804;198;154028;-51